sensor_id;sensor_type;location;lat;lon;timestamp;P1;durP1;ratioP1;P2;durP2;ratioP2
11113;SDS011;5610;52.154;9.198;2024-02-21T00:00:32;31.87;;;17.97;;
11113;SDS011;5610;52.154;9.198;2024-02-21T00:03:18;31.43;;;18.73;;
11113;SDS011;5610;52.154;9.198;2024-02-21T00:06:04;28.23;;;17.93;;
11113;SDS011;5610;52.154;9.198;2024-02-21T00:08:49;30.17;;;18.70;;
11113;SDS011;5610;52.154;9.198;2024-02-21T00:11:34;24.20;;;18.40;;
11113;SDS011;5610;52.154;9.198;2024-02-21T00:14:20;26.73;;;18.70;;
11113;SDS011;5610;52.154;9.198;2024-02-21T00:17:05;33.20;;;17.90;;
11113;SDS011;5610;52.154;9.198;2024-02-21T00:19:53;25.50;;;17.33;;
11113;SDS011;5610;52.154;9.198;2024-02-21T00:22:38;26.67;;;17.57;;
11113;SDS011;5610;52.154;9.198;2024-02-21T00:25:23;26.03;;;16.50;;
11113;SDS011;5610;52.154;9.198;2024-02-21T00:28:08;22.03;;;16.60;;
11113;SDS011;5610;52.154;9.198;2024-02-21T00:30:54;24.23;;;16.13;;
11113;SDS011;5610;52.154;9.198;2024-02-21T00:33:39;24.30;;;18.53;;
11113;SDS011;5610;52.154;9.198;2024-02-21T00:36:25;29.10;;;18.60;;
11113;SDS011;5610;52.154;9.198;2024-02-21T00:39:11;23.60;;;17.20;;
11113;SDS011;5610;52.154;9.198;2024-02-21T00:41:56;25.67;;;17.90;;
11113;SDS011;5610;52.154;9.198;2024-02-21T00:44:41;28.83;;;16.83;;
11113;SDS011;5610;52.154;9.198;2024-02-21T00:47:27;26.07;;;16.70;;
11113;SDS011;5610;52.154;9.198;2024-02-21T00:50:12;27.23;;;17.97;;
11113;SDS011;5610;52.154;9.198;2024-02-21T00:52:58;26.27;;;17.30;;
11113;SDS011;5610;52.154;9.198;2024-02-21T00:55:44;24.20;;;17.20;;
11113;SDS011;5610;52.154;9.198;2024-02-21T00:58:29;27.10;;;18.10;;
11113;SDS011;5610;52.154;9.198;2024-02-21T01:01:20;26.50;;;17.20;;
11113;SDS011;5610;52.154;9.198;2024-02-21T01:04:06;24.23;;;18.70;;
11113;SDS011;5610;52.154;9.198;2024-02-21T01:06:51;25.87;;;17.57;;
11113;SDS011;5610;52.154;9.198;2024-02-21T01:09:38;26.27;;;17.23;;
11113;SDS011;5610;52.154;9.198;2024-02-21T01:12:23;24.33;;;18.30;;
11113;SDS011;5610;52.154;9.198;2024-02-21T01:15:08;25.30;;;18.00;;
11113;SDS011;5610;52.154;9.198;2024-02-21T01:17:54;27.60;;;19.47;;
11113;SDS011;5610;52.154;9.198;2024-02-21T01:20:39;28.73;;;17.90;;
11113;SDS011;5610;52.154;9.198;2024-02-21T01:23:24;31.27;;;19.33;;
11113;SDS011;5610;52.154;9.198;2024-02-21T01:26:11;34.37;;;20.93;;
11113;SDS011;5610;52.154;9.198;2024-02-21T01:28:57;36.53;;;19.33;;
11113;SDS011;5610;52.154;9.198;2024-02-21T01:31:43;29.17;;;17.83;;
11113;SDS011;5610;52.154;9.198;2024-02-21T01:34:28;33.50;;;18.30;;
11113;SDS011;5610;52.154;9.198;2024-02-21T01:37:13;26.80;;;18.40;;
11113;SDS011;5610;52.154;9.198;2024-02-21T01:39:58;31.10;;;18.23;;
11113;SDS011;5610;52.154;9.198;2024-02-21T01:42:44;31.77;;;18.80;;
11113;SDS011;5610;52.154;9.198;2024-02-21T01:45:31;29.73;;;17.23;;
11113;SDS011;5610;52.154;9.198;2024-02-21T01:48:17;28.07;;;18.60;;
11113;SDS011;5610;52.154;9.198;2024-02-21T01:51:03;29.50;;;19.50;;
11113;SDS011;5610;52.154;9.198;2024-02-21T01:53:50;25.03;;;18.63;;
11113;SDS011;5610;52.154;9.198;2024-02-21T01:56:36;26.93;;;19.23;;
11113;SDS011;5610;52.154;9.198;2024-02-21T01:59:23;27.30;;;18.80;;
11113;SDS011;5610;52.154;9.198;2024-02-21T02:02:08;31.77;;;20.20;;
11113;SDS011;5610;52.154;9.198;2024-02-21T02:04:53;28.17;;;19.13;;
11113;SDS011;5610;52.154;9.198;2024-02-21T02:07:39;28.93;;;18.80;;
11113;SDS011;5610;52.154;9.198;2024-02-21T02:10:24;31.43;;;19.87;;
11113;SDS011;5610;52.154;9.198;2024-02-21T02:13:09;24.27;;;18.33;;
11113;SDS011;5610;52.154;9.198;2024-02-21T02:15:56;31.13;;;20.30;;
11113;SDS011;5610;52.154;9.198;2024-02-21T02:18:41;27.43;;;18.60;;
11113;SDS011;5610;52.154;9.198;2024-02-21T02:21:27;30.83;;;19.80;;
11113;SDS011;5610;52.154;9.198;2024-02-21T02:24:15;25.17;;;18.90;;
11113;SDS011;5610;52.154;9.198;2024-02-21T02:27:01;27.33;;;17.20;;
11113;SDS011;5610;52.154;9.198;2024-02-21T02:29:46;31.30;;;19.50;;
11113;SDS011;5610;52.154;9.198;2024-02-21T02:32:31;33.87;;;19.60;;
11113;SDS011;5610;52.154;9.198;2024-02-21T02:35:16;28.13;;;18.00;;
11113;SDS011;5610;52.154;9.198;2024-02-21T02:38:01;27.23;;;20.20;;
11113;SDS011;5610;52.154;9.198;2024-02-21T02:40:48;25.60;;;20.13;;
11113;SDS011;5610;52.154;9.198;2024-02-21T02:43:34;28.33;;;18.63;;
11113;SDS011;5610;52.154;9.198;2024-02-21T02:46:20;30.03;;;19.27;;
11113;SDS011;5610;52.154;9.198;2024-02-21T02:49:05;28.13;;;19.20;;
11113;SDS011;5610;52.154;9.198;2024-02-21T02:51:50;23.07;;;18.60;;
11113;SDS011;5610;52.154;9.198;2024-02-21T02:54:35;26.90;;;19.70;;
11113;SDS011;5610;52.154;9.198;2024-02-21T02:57:22;29.07;;;18.87;;
11113;SDS011;5610;52.154;9.198;2024-02-21T03:00:07;31.23;;;19.13;;
11113;SDS011;5610;52.154;9.198;2024-02-21T03:02:54;28.30;;;18.80;;
11113;SDS011;5610;52.154;9.198;2024-02-21T03:05:39;22.53;;;17.40;;
11113;SDS011;5610;52.154;9.198;2024-02-21T03:08:24;23.20;;;18.03;;
11113;SDS011;5610;52.154;9.198;2024-02-21T03:11:09;28.17;;;18.43;;
11113;SDS011;5610;52.154;9.198;2024-02-21T03:13:56;27.43;;;17.57;;
11113;SDS011;5610;52.154;9.198;2024-02-21T03:16:41;33.13;;;18.80;;
11113;SDS011;5610;52.154;9.198;2024-02-21T03:19:26;28.57;;;18.43;;
11113;SDS011;5610;52.154;9.198;2024-02-21T03:22:11;25.30;;;19.20;;
11113;SDS011;5610;52.154;9.198;2024-02-21T03:24:56;26.60;;;18.90;;
11113;SDS011;5610;52.154;9.198;2024-02-21T03:27:41;26.27;;;19.47;;
11113;SDS011;5610;52.154;9.198;2024-02-21T03:30:28;25.20;;;18.47;;
11113;SDS011;5610;52.154;9.198;2024-02-21T03:33:13;27.07;;;20.63;;
11113;SDS011;5610;52.154;9.198;2024-02-21T03:35:58;26.13;;;20.50;;
11113;SDS011;5610;52.154;9.198;2024-02-21T03:38:43;26.97;;;19.60;;
11113;SDS011;5610;52.154;9.198;2024-02-21T03:41:28;34.50;;;20.30;;
11113;SDS011;5610;52.154;9.198;2024-02-21T03:44:14;34.10;;;21.33;;
11113;SDS011;5610;52.154;9.198;2024-02-21T03:47:01;29.23;;;20.93;;
11113;SDS011;5610;52.154;9.198;2024-02-21T03:49:46;26.27;;;19.40;;
11113;SDS011;5610;52.154;9.198;2024-02-21T03:52:31;25.07;;;19.17;;
11113;SDS011;5610;52.154;9.198;2024-02-21T03:55:16;26.50;;;19.50;;
11113;SDS011;5610;52.154;9.198;2024-02-21T03:58:01;29.43;;;19.80;;
11113;SDS011;5610;52.154;9.198;2024-02-21T04:00:47;26.23;;;19.47;;
11113;SDS011;5610;52.154;9.198;2024-02-21T04:03:34;31.67;;;20.17;;
11113;SDS011;5610;52.154;9.198;2024-02-21T04:06:19;25.70;;;18.93;;
11113;SDS011;5610;52.154;9.198;2024-02-21T04:09:04;24.40;;;18.20;;
11113;SDS011;5610;52.154;9.198;2024-02-21T04:11:50;27.97;;;19.40;;
11113;SDS011;5610;52.154;9.198;2024-02-21T04:14:35;30.43;;;19.43;;
11113;SDS011;5610;52.154;9.198;2024-02-21T04:17:20;32.97;;;19.47;;
11113;SDS011;5610;52.154;9.198;2024-02-21T04:20:13;27.77;;;18.63;;
11113;SDS011;5610;52.154;9.198;2024-02-21T04:22:59;27.17;;;18.63;;
11113;SDS011;5610;52.154;9.198;2024-02-21T04:25:44;30.57;;;19.50;;
11113;SDS011;5610;52.154;9.198;2024-02-21T04:28:29;26.20;;;18.47;;
11113;SDS011;5610;52.154;9.198;2024-02-21T04:31:14;23.30;;;18.80;;
11113;SDS011;5610;52.154;9.198;2024-02-21T04:33:59;27.50;;;18.27;;
11113;SDS011;5610;52.154;9.198;2024-02-21T04:36:45;30.00;;;17.63;;
11113;SDS011;5610;52.154;9.198;2024-02-21T04:39:31;30.00;;;17.87;;
11113;SDS011;5610;52.154;9.198;2024-02-21T04:42:16;24.37;;;17.37;;
11113;SDS011;5610;52.154;9.198;2024-02-21T04:45:02;27.00;;;16.53;;
11113;SDS011;5610;52.154;9.198;2024-02-21T04:47:47;26.77;;;17.63;;
11113;SDS011;5610;52.154;9.198;2024-02-21T04:50:32;25.73;;;18.13;;
11113;SDS011;5610;52.154;9.198;2024-02-21T04:53:19;22.10;;;17.37;;
11113;SDS011;5610;52.154;9.198;2024-02-21T04:56:04;28.77;;;18.87;;
11113;SDS011;5610;52.154;9.198;2024-02-21T04:58:49;23.87;;;17.00;;
11113;SDS011;5610;52.154;9.198;2024-02-21T05:01:35;24.40;;;15.97;;
11113;SDS011;5610;52.154;9.198;2024-02-21T05:04:20;22.20;;;17.20;;
11113;SDS011;5610;52.154;9.198;2024-02-21T05:07:05;26.10;;;17.57;;
11113;SDS011;5610;52.154;9.198;2024-02-21T05:09:51;23.93;;;16.80;;
11113;SDS011;5610;52.154;9.198;2024-02-21T05:12:37;29.87;;;17.63;;
11113;SDS011;5610;52.154;9.198;2024-02-21T05:15:22;24.60;;;18.23;;
11113;SDS011;5610;52.154;9.198;2024-02-21T05:18:07;29.70;;;18.60;;
11113;SDS011;5610;52.154;9.198;2024-02-21T05:20:52;26.40;;;18.37;;
11113;SDS011;5610;52.154;9.198;2024-02-21T05:23:37;28.87;;;19.00;;
11113;SDS011;5610;52.154;9.198;2024-02-21T05:26:25;27.40;;;19.93;;
11113;SDS011;5610;52.154;9.198;2024-02-21T05:29:11;27.03;;;17.87;;
11113;SDS011;5610;52.154;9.198;2024-02-21T05:31:56;29.87;;;19.70;;
11113;SDS011;5610;52.154;9.198;2024-02-21T05:34:42;28.67;;;19.50;;
11113;SDS011;5610;52.154;9.198;2024-02-21T05:37:27;28.77;;;20.10;;
11113;SDS011;5610;52.154;9.198;2024-02-21T05:40:12;24.90;;;18.80;;
11113;SDS011;5610;52.154;9.198;2024-02-21T05:42:59;25.60;;;18.33;;
11113;SDS011;5610;52.154;9.198;2024-02-21T05:45:44;26.47;;;18.40;;
11113;SDS011;5610;52.154;9.198;2024-02-21T05:48:29;22.07;;;18.83;;
11113;SDS011;5610;52.154;9.198;2024-02-21T05:51:14;25.60;;;19.13;;
11113;SDS011;5610;52.154;9.198;2024-02-21T05:54:00;30.57;;;20.83;;
11113;SDS011;5610;52.154;9.198;2024-02-21T05:56:45;32.73;;;20.47;;
11113;SDS011;5610;52.154;9.198;2024-02-21T05:59:32;28.97;;;20.13;;
11113;SDS011;5610;52.154;9.198;2024-02-21T06:02:17;23.50;;;18.47;;
11113;SDS011;5610;52.154;9.198;2024-02-21T06:05:03;21.93;;;18.27;;
11113;SDS011;5610;52.154;9.198;2024-02-21T06:07:51;26.70;;;17.60;;
11113;SDS011;5610;52.154;9.198;2024-02-21T06:10:36;25.87;;;17.90;;
11113;SDS011;5610;52.154;9.198;2024-02-21T06:13:21;22.60;;;17.80;;
11113;SDS011;5610;52.154;9.198;2024-02-21T06:16:08;25.03;;;19.10;;
11113;SDS011;5610;52.154;9.198;2024-02-21T06:18:53;23.03;;;18.53;;
11113;SDS011;5610;52.154;9.198;2024-02-21T06:21:38;27.57;;;16.43;;
11113;SDS011;5610;52.154;9.198;2024-02-21T06:24:23;25.37;;;17.70;;
11113;SDS011;5610;52.154;9.198;2024-02-21T06:27:08;24.10;;;17.23;;
11113;SDS011;5610;52.154;9.198;2024-02-21T06:29:54;21.33;;;15.70;;
11113;SDS011;5610;52.154;9.198;2024-02-21T06:32:41;21.27;;;18.20;;
11113;SDS011;5610;52.154;9.198;2024-02-21T06:35:26;19.37;;;16.30;;
11113;SDS011;5610;52.154;9.198;2024-02-21T06:38:11;24.43;;;17.03;;
11113;SDS011;5610;52.154;9.198;2024-02-21T06:40:57;22.23;;;15.87;;
11113;SDS011;5610;52.154;9.198;2024-02-21T06:43:44;20.43;;;15.40;;
11113;SDS011;5610;52.154;9.198;2024-02-21T06:46:29;26.07;;;17.20;;
11113;SDS011;5610;52.154;9.198;2024-02-21T06:49:17;22.97;;;16.60;;
11113;SDS011;5610;52.154;9.198;2024-02-21T06:52:03;23.83;;;16.00;;
11113;SDS011;5610;52.154;9.198;2024-02-21T06:54:49;24.53;;;15.63;;
11113;SDS011;5610;52.154;9.198;2024-02-21T06:57:34;22.53;;;16.20;;
11113;SDS011;5610;52.154;9.198;2024-02-21T07:00:19;22.83;;;16.53;;
11113;SDS011;5610;52.154;9.198;2024-02-21T07:03:05;24.07;;;17.30;;
11113;SDS011;5610;52.154;9.198;2024-02-21T07:05:52;29.00;;;17.10;;
11113;SDS011;5610;52.154;9.198;2024-02-21T07:08:37;25.87;;;17.90;;
11113;SDS011;5610;52.154;9.198;2024-02-21T07:11:22;27.43;;;15.57;;
11113;SDS011;5610;52.154;9.198;2024-02-21T07:14:07;23.47;;;16.03;;
11113;SDS011;5610;52.154;9.198;2024-02-21T07:16:53;24.50;;;17.93;;
11113;SDS011;5610;52.154;9.198;2024-02-21T07:19:40;22.03;;;16.93;;
11113;SDS011;5610;52.154;9.198;2024-02-21T07:22:27;30.83;;;18.27;;
11113;SDS011;5610;52.154;9.198;2024-02-21T07:25:12;24.50;;;16.27;;
11113;SDS011;5610;52.154;9.198;2024-02-21T07:27:58;24.70;;;17.57;;
11113;SDS011;5610;52.154;9.198;2024-02-21T07:30:44;23.10;;;15.20;;
11113;SDS011;5610;52.154;9.198;2024-02-21T07:33:29;24.77;;;16.27;;
11113;SDS011;5610;52.154;9.198;2024-02-21T07:36:15;25.17;;;16.27;;
11113;SDS011;5610;52.154;9.198;2024-02-21T07:39:02;19.90;;;14.27;;
11113;SDS011;5610;52.154;9.198;2024-02-21T07:41:49;24.80;;;14.03;;
11113;SDS011;5610;52.154;9.198;2024-02-21T07:44:34;21.80;;;14.33;;
11113;SDS011;5610;52.154;9.198;2024-02-21T07:47:19;19.97;;;12.90;;
11113;SDS011;5610;52.154;9.198;2024-02-21T07:50:05;16.30;;;12.40;;
11113;SDS011;5610;52.154;9.198;2024-02-21T07:52:50;18.60;;;12.40;;
11113;SDS011;5610;52.154;9.198;2024-02-21T07:55:37;16.17;;;11.60;;
11113;SDS011;5610;52.154;9.198;2024-02-21T07:58:22;12.77;;;11.20;;
11113;SDS011;5610;52.154;9.198;2024-02-21T08:01:07;18.97;;;11.33;;
11113;SDS011;5610;52.154;9.198;2024-02-21T08:03:53;17.60;;;11.13;;
11113;SDS011;5610;52.154;9.198;2024-02-21T08:06:37;14.70;;;10.30;;
11113;SDS011;5610;52.154;9.198;2024-02-21T08:09:23;17.83;;;10.53;;
11113;SDS011;5610;52.154;9.198;2024-02-21T08:12:09;17.10;;;10.20;;
11113;SDS011;5610;52.154;9.198;2024-02-21T08:14:54;19.27;;;9.67;;
11113;SDS011;5610;52.154;9.198;2024-02-21T08:17:40;15.23;;;10.30;;
11113;SDS011;5610;52.154;9.198;2024-02-21T08:20:25;16.70;;;9.63;;
11113;SDS011;5610;52.154;9.198;2024-02-21T08:23:11;15.23;;;9.97;;
11113;SDS011;5610;52.154;9.198;2024-02-21T08:25:56;14.90;;;9.80;;
11113;SDS011;5610;52.154;9.198;2024-02-21T08:28:43;14.37;;;9.67;;
11113;SDS011;5610;52.154;9.198;2024-02-21T08:31:28;15.30;;;9.53;;
11113;SDS011;5610;52.154;9.198;2024-02-21T08:34:15;13.50;;;9.63;;
11113;SDS011;5610;52.154;9.198;2024-02-21T08:37:02;14.77;;;10.03;;
11113;SDS011;5610;52.154;9.198;2024-02-21T08:39:47;12.80;;;8.20;;
11113;SDS011;5610;52.154;9.198;2024-02-21T08:42:32;15.27;;;8.60;;
11113;SDS011;5610;52.154;9.198;2024-02-21T08:45:19;14.57;;;8.40;;
11113;SDS011;5610;52.154;9.198;2024-02-21T08:48:05;13.67;;;8.23;;
11113;SDS011;5610;52.154;9.198;2024-02-21T08:50:53;15.90;;;8.70;;
11113;SDS011;5610;52.154;9.198;2024-02-21T08:53:38;12.93;;;9.70;;
11113;SDS011;5610;52.154;9.198;2024-02-21T08:56:24;14.33;;;9.20;;
11113;SDS011;5610;52.154;9.198;2024-02-21T08:59:09;10.73;;;8.30;;
11113;SDS011;5610;52.154;9.198;2024-02-21T09:01:55;13.63;;;7.57;;
11113;SDS011;5610;52.154;9.198;2024-02-21T09:04:41;10.23;;;7.37;;
11113;SDS011;5610;52.154;9.198;2024-02-21T09:07:26;21.43;;;8.53;;
11113;SDS011;5610;52.154;9.198;2024-02-21T09:10:11;13.73;;;8.37;;
11113;SDS011;5610;52.154;9.198;2024-02-21T09:12:56;15.03;;;7.93;;
11113;SDS011;5610;52.154;9.198;2024-02-21T09:15:42;10.93;;;8.00;;
11113;SDS011;5610;52.154;9.198;2024-02-21T09:18:29;9.97;;;7.80;;
11113;SDS011;5610;52.154;9.198;2024-02-21T09:21:14;13.20;;;7.47;;
11113;SDS011;5610;52.154;9.198;2024-02-21T09:24:00;11.67;;;7.80;;
11113;SDS011;5610;52.154;9.198;2024-02-21T09:26:45;11.67;;;7.67;;
11113;SDS011;5610;52.154;9.198;2024-02-21T09:29:31;10.10;;;7.50;;
11113;SDS011;5610;52.154;9.198;2024-02-21T09:32:17;12.30;;;7.67;;
11113;SDS011;5610;52.154;9.198;2024-02-21T09:35:05;9.57;;;6.43;;
11113;SDS011;5610;52.154;9.198;2024-02-21T09:37:50;11.13;;;6.73;;
11113;SDS011;5610;52.154;9.198;2024-02-21T09:40:37;7.40;;;6.17;;
11113;SDS011;5610;52.154;9.198;2024-02-21T09:43:24;10.03;;;6.70;;
11113;SDS011;5610;52.154;9.198;2024-02-21T09:46:10;11.50;;;6.27;;
11113;SDS011;5610;52.154;9.198;2024-02-21T09:49:04;11.50;;;6.40;;
11113;SDS011;5610;52.154;9.198;2024-02-21T09:52:00;9.67;;;6.30;;
11113;SDS011;5610;52.154;9.198;2024-02-21T09:54:47;10.47;;;5.90;;
11113;SDS011;5610;52.154;9.198;2024-02-21T09:57:32;10.60;;;5.67;;
11113;SDS011;5610;52.154;9.198;2024-02-21T10:00:18;9.47;;;6.00;;
11113;SDS011;5610;52.154;9.198;2024-02-21T10:03:05;9.37;;;5.70;;
11113;SDS011;5610;52.154;9.198;2024-02-21T10:05:53;9.47;;;6.43;;
11113;SDS011;5610;52.154;9.198;2024-02-21T10:08:40;7.23;;;5.10;;
11113;SDS011;5610;52.154;9.198;2024-02-21T10:11:25;7.50;;;5.27;;
11113;SDS011;5610;52.154;9.198;2024-02-21T10:14:10;9.10;;;5.70;;
11113;SDS011;5610;52.154;9.198;2024-02-21T10:16:56;12.73;;;5.60;;
11113;SDS011;5610;52.154;9.198;2024-02-21T10:19:42;8.43;;;5.77;;
11113;SDS011;5610;52.154;9.198;2024-02-21T10:22:27;7.50;;;5.10;;
11113;SDS011;5610;52.154;9.198;2024-02-21T10:25:16;9.90;;;5.20;;
11113;SDS011;5610;52.154;9.198;2024-02-21T10:28:03;7.43;;;4.13;;
11113;SDS011;5610;52.154;9.198;2024-02-21T10:30:49;11.63;;;4.47;;
11113;SDS011;5610;52.154;9.198;2024-02-21T10:33:36;5.97;;;5.00;;
11113;SDS011;5610;52.154;9.198;2024-02-21T10:36:22;10.80;;;5.43;;
11113;SDS011;5610;52.154;9.198;2024-02-21T10:39:08;7.60;;;5.10;;
11113;SDS011;5610;52.154;9.198;2024-02-21T10:41:54;8.57;;;4.93;;
11113;SDS011;5610;52.154;9.198;2024-02-21T10:44:44;8.17;;;5.60;;
11113;SDS011;5610;52.154;9.198;2024-02-21T10:47:35;7.93;;;4.40;;
11113;SDS011;5610;52.154;9.198;2024-02-21T10:50:23;6.20;;;4.73;;
11113;SDS011;5610;52.154;9.198;2024-02-21T10:53:13;6.27;;;3.57;;
11113;SDS011;5610;52.154;9.198;2024-02-21T10:56:11;7.03;;;3.60;;
11113;SDS011;5610;52.154;9.198;2024-02-21T10:59:07;4.23;;;3.80;;
11113;SDS011;5610;52.154;9.198;2024-02-21T11:01:53;5.60;;;3.37;;
11113;SDS011;5610;52.154;9.198;2024-02-21T11:04:38;6.37;;;3.57;;
11113;SDS011;5610;52.154;9.198;2024-02-21T11:07:25;5.13;;;3.50;;
11113;SDS011;5610;52.154;9.198;2024-02-21T11:10:20;5.87;;;4.00;;
11113;SDS011;5610;52.154;9.198;2024-02-21T11:13:07;6.70;;;4.30;;
11113;SDS011;5610;52.154;9.198;2024-02-21T11:15:54;4.53;;;4.10;;
11113;SDS011;5610;52.154;9.198;2024-02-21T11:18:39;3.93;;;3.57;;
11113;SDS011;5610;52.154;9.198;2024-02-21T11:21:32;4.67;;;4.23;;
11113;SDS011;5610;52.154;9.198;2024-02-21T11:24:25;8.23;;;4.07;;
11113;SDS011;5610;52.154;9.198;2024-02-21T11:27:11;6.83;;;4.63;;
11113;SDS011;5610;52.154;9.198;2024-02-21T11:29:57;5.93;;;5.13;;
11113;SDS011;5610;52.154;9.198;2024-02-21T11:32:44;7.20;;;5.90;;
11113;SDS011;5610;52.154;9.198;2024-02-21T11:35:31;9.30;;;5.33;;
11113;SDS011;5610;52.154;9.198;2024-02-21T11:38:17;6.70;;;5.03;;
11113;SDS011;5610;52.154;9.198;2024-02-21T11:41:03;6.63;;;5.90;;
11113;SDS011;5610;52.154;9.198;2024-02-21T11:43:53;7.80;;;5.70;;
11113;SDS011;5610;52.154;9.198;2024-02-21T11:46:38;9.10;;;6.93;;
11113;SDS011;5610;52.154;9.198;2024-02-21T11:49:25;9.30;;;8.07;;
11113;SDS011;5610;52.154;9.198;2024-02-21T11:52:11;8.20;;;7.23;;
11113;SDS011;5610;52.154;9.198;2024-02-21T11:54:58;9.50;;;7.60;;
11113;SDS011;5610;52.154;9.198;2024-02-21T11:57:48;10.40;;;7.50;;
11113;SDS011;5610;52.154;9.198;2024-02-21T12:00:33;9.90;;;7.57;;
11113;SDS011;5610;52.154;9.198;2024-02-21T12:03:19;10.07;;;8.30;;
11113;SDS011;5610;52.154;9.198;2024-02-21T12:06:07;11.50;;;7.40;;
11113;SDS011;5610;52.154;9.198;2024-02-21T12:08:57;8.57;;;7.77;;
11113;SDS011;5610;52.154;9.198;2024-02-21T12:11:42;8.87;;;7.20;;
11113;SDS011;5610;52.154;9.198;2024-02-21T12:14:28;9.33;;;6.80;;
11113;SDS011;5610;52.154;9.198;2024-02-21T12:17:14;10.37;;;8.03;;
11113;SDS011;5610;52.154;9.198;2024-02-21T12:19:59;8.77;;;7.23;;
11113;SDS011;5610;52.154;9.198;2024-02-21T12:22:48;7.77;;;7.03;;
11113;SDS011;5610;52.154;9.198;2024-02-21T12:25:35;11.77;;;7.50;;
11113;SDS011;5610;52.154;9.198;2024-02-21T12:28:20;10.50;;;7.53;;
11113;SDS011;5610;52.154;9.198;2024-02-21T12:31:06;8.50;;;6.00;;
11113;SDS011;5610;52.154;9.198;2024-02-21T12:33:51;7.50;;;6.43;;
11113;SDS011;5610;52.154;9.198;2024-02-21T12:36:40;10.50;;;6.40;;
11113;SDS011;5610;52.154;9.198;2024-02-21T12:39:28;6.83;;;5.93;;
11113;SDS011;5610;52.154;9.198;2024-02-21T12:42:13;7.63;;;5.80;;
11113;SDS011;5610;52.154;9.198;2024-02-21T12:44:58;9.97;;;5.23;;
11113;SDS011;5610;52.154;9.198;2024-02-21T12:47:45;5.83;;;4.73;;
11113;SDS011;5610;52.154;9.198;2024-02-21T12:50:30;9.80;;;5.10;;
11113;SDS011;5610;52.154;9.198;2024-02-21T12:53:16;7.90;;;4.70;;
11113;SDS011;5610;52.154;9.198;2024-02-21T12:56:04;6.60;;;4.90;;
11113;SDS011;5610;52.154;9.198;2024-02-21T12:58:51;10.00;;;4.53;;
11113;SDS011;5610;52.154;9.198;2024-02-21T13:01:36;4.90;;;4.40;;
11113;SDS011;5610;52.154;9.198;2024-02-21T13:04:22;6.47;;;3.87;;
11113;SDS011;5610;52.154;9.198;2024-02-21T13:07:08;4.93;;;3.60;;
11113;SDS011;5610;52.154;9.198;2024-02-21T13:09:53;6.30;;;3.70;;
11113;SDS011;5610;52.154;9.198;2024-02-21T13:12:40;7.77;;;4.07;;
11113;SDS011;5610;52.154;9.198;2024-02-21T13:15:25;4.60;;;3.17;;
11113;SDS011;5610;52.154;9.198;2024-02-21T13:18:11;8.90;;;3.90;;
11113;SDS011;5610;52.154;9.198;2024-02-21T13:20:56;5.03;;;3.23;;
11113;SDS011;5610;52.154;9.198;2024-02-21T13:23:41;6.90;;;3.63;;
11113;SDS011;5610;52.154;9.198;2024-02-21T13:26:28;7.83;;;3.83;;
11113;SDS011;5610;52.154;9.198;2024-02-21T13:29:14;8.07;;;3.23;;
11113;SDS011;5610;52.154;9.198;2024-02-21T13:32:00;6.60;;;3.13;;
11113;SDS011;5610;52.154;9.198;2024-02-21T13:34:45;5.47;;;3.23;;
11113;SDS011;5610;52.154;9.198;2024-02-21T13:37:31;7.73;;;3.90;;
11113;SDS011;5610;52.154;9.198;2024-02-21T13:40:16;5.03;;;3.17;;
11113;SDS011;5610;52.154;9.198;2024-02-21T13:43:01;6.80;;;3.47;;
11113;SDS011;5610;52.154;9.198;2024-02-21T13:45:55;4.90;;;2.70;;
11113;SDS011;5610;52.154;9.198;2024-02-21T13:48:42;8.70;;;4.30;;
11113;SDS011;5610;52.154;9.198;2024-02-21T13:51:27;6.17;;;3.27;;
11113;SDS011;5610;52.154;9.198;2024-02-21T13:54:12;4.20;;;2.97;;
11113;SDS011;5610;52.154;9.198;2024-02-21T13:57:01;6.67;;;3.73;;
11113;SDS011;5610;52.154;9.198;2024-02-21T13:59:46;6.03;;;3.60;;
11113;SDS011;5610;52.154;9.198;2024-02-21T14:02:32;7.10;;;3.47;;
11113;SDS011;5610;52.154;9.198;2024-02-21T14:05:18;4.27;;;3.57;;
11113;SDS011;5610;52.154;9.198;2024-02-21T14:08:03;4.13;;;3.20;;
11113;SDS011;5610;52.154;9.198;2024-02-21T14:10:49;5.60;;;3.50;;
11113;SDS011;5610;52.154;9.198;2024-02-21T14:13:35;9.83;;;4.10;;
11113;SDS011;5610;52.154;9.198;2024-02-21T14:16:20;8.20;;;3.40;;
11113;SDS011;5610;52.154;9.198;2024-02-21T14:19:07;5.70;;;3.43;;
11113;SDS011;5610;52.154;9.198;2024-02-21T14:21:52;5.40;;;3.10;;
11113;SDS011;5610;52.154;9.198;2024-02-21T14:24:38;4.83;;;3.10;;
11113;SDS011;5610;52.154;9.198;2024-02-21T14:27:23;5.93;;;3.33;;
11113;SDS011;5610;52.154;9.198;2024-02-21T14:30:08;4.77;;;3.03;;
11113;SDS011;5610;52.154;9.198;2024-02-21T14:32:55;3.93;;;2.50;;
11113;SDS011;5610;52.154;9.198;2024-02-21T14:35:41;8.70;;;3.30;;
11113;SDS011;5610;52.154;9.198;2024-02-21T14:38:26;14.83;;;10.30;;
11113;SDS011;5610;52.154;9.198;2024-02-21T14:41:12;7.33;;;5.50;;
11113;SDS011;5610;52.154;9.198;2024-02-21T14:43:57;5.60;;;3.43;;
11113;SDS011;5610;52.154;9.198;2024-02-21T14:46:44;10.07;;;3.17;;
11113;SDS011;5610;52.154;9.198;2024-02-21T14:49:29;9.40;;;4.30;;
11113;SDS011;5610;52.154;9.198;2024-02-21T14:52:16;8.17;;;4.80;;
11113;SDS011;5610;52.154;9.198;2024-02-21T14:55:01;8.07;;;4.17;;
11113;SDS011;5610;52.154;9.198;2024-02-21T14:57:47;10.27;;;4.13;;
11113;SDS011;5610;52.154;9.198;2024-02-21T15:00:33;8.90;;;4.90;;
11113;SDS011;5610;52.154;9.198;2024-02-21T15:03:18;6.60;;;4.67;;
11113;SDS011;5610;52.154;9.198;2024-02-21T15:06:04;5.60;;;3.63;;
11113;SDS011;5610;52.154;9.198;2024-02-21T15:08:51;10.80;;;3.93;;
11113;SDS011;5610;52.154;9.198;2024-02-21T15:11:36;6.10;;;3.70;;
11113;SDS011;5610;52.154;9.198;2024-02-21T15:14:21;11.13;;;5.97;;
11113;SDS011;5610;52.154;9.198;2024-02-21T15:17:07;11.20;;;4.40;;
11113;SDS011;5610;52.154;9.198;2024-02-21T15:19:53;8.37;;;4.13;;
11113;SDS011;5610;52.154;9.198;2024-02-21T15:22:39;8.97;;;3.80;;
11113;SDS011;5610;52.154;9.198;2024-02-21T15:25:25;8.00;;;4.33;;
11113;SDS011;5610;52.154;9.198;2024-02-21T15:28:11;10.23;;;6.90;;
11113;SDS011;5610;52.154;9.198;2024-02-21T15:30:57;8.30;;;4.20;;
11113;SDS011;5610;52.154;9.198;2024-02-21T15:33:42;10.40;;;3.60;;
11113;SDS011;5610;52.154;9.198;2024-02-21T15:36:27;7.13;;;4.87;;
11113;SDS011;5610;52.154;9.198;2024-02-21T15:39:12;7.63;;;3.93;;
11113;SDS011;5610;52.154;9.198;2024-02-21T15:41:59;6.40;;;3.93;;
11113;SDS011;5610;52.154;9.198;2024-02-21T15:44:44;8.77;;;3.83;;
11113;SDS011;5610;52.154;9.198;2024-02-21T15:47:29;6.80;;;4.47;;
11113;SDS011;5610;52.154;9.198;2024-02-21T15:50:15;10.63;;;4.67;;
11113;SDS011;5610;52.154;9.198;2024-02-21T15:53:00;8.33;;;4.27;;
11113;SDS011;5610;52.154;9.198;2024-02-21T15:55:45;8.10;;;4.33;;
11113;SDS011;5610;52.154;9.198;2024-02-21T15:58:32;6.20;;;3.70;;
11113;SDS011;5610;52.154;9.198;2024-02-21T16:01:17;7.57;;;4.47;;
11113;SDS011;5610;52.154;9.198;2024-02-21T16:04:03;9.03;;;4.17;;
11113;SDS011;5610;52.154;9.198;2024-02-21T16:06:49;8.57;;;4.63;;
11113;SDS011;5610;52.154;9.198;2024-02-21T16:09:35;6.17;;;4.00;;
11113;SDS011;5610;52.154;9.198;2024-02-21T16:12:20;8.20;;;4.47;;
11113;SDS011;5610;52.154;9.198;2024-02-21T16:15:09;6.80;;;4.10;;
11113;SDS011;5610;52.154;9.198;2024-02-21T16:17:55;7.40;;;4.20;;
11113;SDS011;5610;52.154;9.198;2024-02-21T16:20:40;17.40;;;5.03;;
11113;SDS011;5610;52.154;9.198;2024-02-21T16:23:25;5.17;;;4.00;;
11113;SDS011;5610;52.154;9.198;2024-02-21T16:26:10;9.70;;;3.90;;
11113;SDS011;5610;52.154;9.198;2024-02-21T16:28:56;9.10;;;4.10;;
11113;SDS011;5610;52.154;9.198;2024-02-21T16:31:43;5.03;;;4.23;;
11113;SDS011;5610;52.154;9.198;2024-02-21T16:34:28;9.07;;;4.30;;
11113;SDS011;5610;52.154;9.198;2024-02-21T16:37:13;9.00;;;4.10;;